Time;durP1;ratioP1;P1;durP2;ratioP2;P2;SDS_P1;SDS_P2;PMS_P1;PMS_P2;Temp;Humidity;BMP_temperature;BMP_pressure;BME280_temperature;BME280_humidity;BME280_pressure;Samples;Min_cycle;Max_cycle;Signal;HPM_P1;HPM_P2
2023/03/19 00:00:32;;;;;;;23.02;12.55;;;;;;;12.58;100.00;100750.56;5007298;28;20053;-73
2023/03/19 00:02:59;;;;;;;25.80;13.35;;;;;;;12.69;100.00;100759.56;5006256;28;20061;-75
2023/03/19 00:05:26;;;;;;;23.17;13.40;;;;;;;12.71;100.00;100751.63;5006989;28;20050;-75
2023/03/19 00:07:52;;;;;;;24.13;12.73;;;;;;;12.80;100.00;100756.69;5007443;28;20057;-74
2023/03/19 00:10:20;;;;;;;19.95;9.95;;;;;;;12.84;100.00;100752.69;5004443;28;20052;-75
2023/03/19 00:12:46;;;;;;;20.42;9.52;;;;;;;12.77;100.00;100749.19;5004088;28;20058;-72
2023/03/19 00:15:14;;;;;;;18.75;8.73;;;;;;;12.87;100.00;100745.53;5006285;28;20053;-74
2023/03/19 00:17:41;;;;;;;17.77;8.38;;;;;;;12.87;100.00;100745.53;5005205;28;20057;-74
2023/03/19 00:20:10;;;;;;;20.52;9.57;;;;;;;12.93;100.00;100749.44;5005249;28;20053;-73
2023/03/19 00:22:37;;;;;;;18.00;7.18;;;;;;;12.93;100.00;100750.19;5000849;28;20054;-76
2023/03/19 00:25:04;;;;;;;16.67;8.27;;;;;;;12.94;100.00;100751.81;5006824;28;20050;-73
2023/03/19 00:27:30;;;;;;;20.73;8.25;;;;;;;12.91;100.00;100760.16;5004289;28;21193;-76
2023/03/19 00:29:57;;;;;;;18.52;8.70;;;;;;;12.99;100.00;100764.47;5005676;28;20058;-74
2023/03/19 00:32:24;;;;;;;14.82;7.25;;;;;;;13.02;100.00;100764.44;5005856;28;20053;-77
2023/03/19 00:34:51;;;;;;;20.85;9.15;;;;;;;13.04;100.00;100761.25;5005111;28;20129;-74
2023/03/19 00:37:18;;;;;;;20.63;8.73;;;;;;;13.06;100.00;100764.38;5005113;28;20462;-77
2023/03/19 00:39:44;;;;;;;15.68;7.70;;;;;;;13.02;100.00;100782.31;5006582;28;20054;-74
2023/03/19 00:42:11;;;;;;;17.27;8.27;;;;;;;12.99;100.00;100787.47;5006709;28;20050;-73
2023/03/19 00:44:38;;;;;;;18.55;8.43;;;;;;;13.00;100.00;100785.50;5001955;28;20439;-74
2023/03/19 00:47:06;;;;;;;20.15;8.45;;;;;;;13.02;100.00;100791.41;5004898;28;20049;-72
2023/03/19 00:49:32;;;;;;;20.25;8.73;;;;;;;13.02;100.00;100796.19;5014875;28;20259;-74
2023/03/19 00:51:59;;;;;;;20.35;7.72;;;;;;;12.92;100.00;100800.59;5004662;28;20081;-74
2023/03/19 00:54:26;;;;;;;21.33;8.50;;;;;;;13.00;100.00;100791.06;5004501;28;20046;-74
2023/03/19 00:56:52;;;;;;;19.85;9.10;;;;;;;13.06;100.00;100778.28;5006766;28;20100;-76
2023/03/19 00:59:19;;;;;;;20.92;9.63;;;;;;;13.09;100.00;100779.47;5005663;28;20052;-73
2023/03/19 01:01:45;;;;;;;19.55;10.00;;;;;;;13.12;100.00;100773.09;5003815;28;20082;-75
2023/03/19 01:04:13;;;;;;;17.58;8.68;;;;;;;13.15;100.00;100763.91;5003964;28;20149;-75
2023/03/19 01:06:40;;;;;;;18.77;9.75;;;;;;;13.19;100.00;100757.09;5003176;28;20419;-74
2023/03/19 01:09:07;;;;;;;19.77;8.52;;;;;;;13.18;100.00;100749.19;5005777;28;20057;-76
2023/03/19 01:11:34;;;;;;;19.30;9.35;;;;;;;13.14;100.00;100759.56;5004150;28;20054;-73
2023/03/19 01:14:01;;;;;;;19.77;8.88;;;;;;;12.70;100.00;100763.13;5004924;28;20089;-73
2023/03/19 01:16:28;;;;;;;22.13;10.35;;;;;;;12.65;100.00;100760.78;5005899;28;20053;-73
2023/03/19 01:18:54;;;;;;;21.13;9.75;;;;;;;12.67;100.00;100761.19;5004902;28;20092;-76
2023/03/19 01:21:21;;;;;;;22.38;9.70;;;;;;;12.65;100.00;100766.34;5005104;28;20057;-74
2023/03/19 01:23:48;;;;;;;21.45;9.70;;;;;;;12.50;100.00;100767.66;5001498;28;20053;-74
2023/03/19 01:26:15;;;;;;;20.27;9.63;;;;;;;12.47;100.00;100766.50;5003895;28;20161;-74
2023/03/19 01:28:42;;;;;;;20.52;9.80;;;;;;;12.46;100.00;100766.91;5005776;28;20129;-78
2023/03/19 01:31:09;;;;;;;18.60;8.90;;;;;;;12.43;100.00;100762.19;5003698;28;20136;-74
2023/03/19 01:33:36;;;;;;;18.95;9.13;;;;;;;12.41;100.00;100765.38;5003645;28;20050;-76
2023/03/19 01:36:04;;;;;;;18.27;9.13;;;;;;;12.41;100.00;100750.69;5004268;28;20057;-74
2023/03/19 01:38:31;;;;;;;17.98;9.70;;;;;;;12.72;100.00;100760.72;5002826;28;20058;-74
2023/03/19 01:40:57;;;;;;;19.25;9.13;;;;;;;12.69;100.00;100756.78;5004580;28;20771;-73
2023/03/19 01:43:29;;;;;;;20.35;9.07;;;;;;;12.65;100.00;100760.78;5004088;28;20045;-74
2023/03/19 01:46:00;;;;;;;19.63;9.57;;;;;;;12.58;100.00;100758.06;5015785;28;20678;-72
2023/03/19 01:48:37;;;;;;;23.40;11.48;;;;;;;12.56;100.00;100761.25;5004217;28;20046;-73
2023/03/19 01:51:06;;;;;;;21.35;10.88;;;;;;;12.53;100.00;100758.53;5005104;28;20092;-74
2023/03/19 01:53:34;;;;;;;22.58;10.70;;;;;;;12.51;100.00;100755.38;5004411;28;20050;-75
2023/03/19 01:56:24;;;;;;;24.90;11.52;;;;;;;12.55;100.00;100756.13;5004050;28;20050;-74
2023/03/19 01:58:55;;;;;;;23.15;10.85;;;;;;;12.51;100.00;100758.13;5003264;28;20053;-76
2023/03/19 02:01:22;;;;;;;20.48;10.75;;;;;;;12.40;100.00;100749.13;5003252;28;20716;-73
2023/03/19 02:03:51;;;;;;;23.80;10.98;;;;;;;12.39;100.00;100747.56;5003149;28;20054;-74
2023/03/19 02:06:20;;;;;;;22.25;10.60;;;;;;;12.33;100.00;100738.88;5003644;28;20054;-74
2023/03/19 02:08:50;;;;;;;21.92;11.63;;;;;;;12.28;100.00;100747.63;5001533;28;20053;-75
2023/03/19 02:11:17;;;;;;;20.08;11.05;;;;;;;12.29;100.00;100740.09;5003762;28;20132;-73
2023/03/19 02:13:45;;;;;;;20.65;11.88;;;;;;;12.29;100.00;100742.88;5001771;28;20713;-73
2023/03/19 02:16:11;;;;;;;18.30;11.27;;;;;;;12.25;100.00;100736.56;4998666;28;20046;-74
2023/03/19 02:18:38;;;;;;;22.13;12.98;;;;;;;12.25;100.00;100739.34;4997389;28;20174;-72
2023/03/19 02:21:07;;;;;;;23.17;12.57;;;;;;;12.20;100.00;100746.09;5003316;28;20058;-71
2023/03/19 02:23:33;;;;;;;26.17;11.80;;;;;;;12.21;100.00;100746.88;5004967;28;20164;-73
2023/03/19 02:26:07;;;;;;;18.65;10.43;;;;;;;12.08;100.00;100743.81;5004135;28;20133;-73
2023/03/19 02:28:38;;;;;;;21.45;10.88;;;;;;;12.05;100.00;100744.59;5004384;28;20046;-73
2023/03/19 02:31:06;;;;;;;24.88;11.55;;;;;;;12.08;100.00;100743.81;5000957;28;20050;-73
2023/03/19 02:33:33;;;;;;;20.95;10.68;;;;;;;12.09;100.00;100739.81;5004292;28;20061;-73
2023/03/19 02:36:02;;;;;;;20.60;11.40;;;;;;;12.15;100.00;100740.22;5005063;28;20046;-74
2023/03/19 02:38:31;;;;;;;21.83;11.40;;;;;;;12.13;100.00;100739.81;5003032;28;20057;-75
2023/03/19 02:41:04;;;;;;;20.30;11.73;;;;;;;12.14;100.00;100742.19;5004351;28;20049;-75
2023/03/19 02:43:33;;;;;;;20.08;10.93;;;;;;;12.14;100.00;100746.94;5002488;28;20061;-74
2023/03/19 02:46:05;;;;;;;25.17;11.32;;;;;;;12.15;100.00;100740.97;5004247;28;20056;-75
2023/03/19 02:48:31;;;;;;;20.88;11.27;;;;;;;12.15;100.00;100742.97;5003377;28;20046;-71
2023/03/19 02:51:01;;;;;;;20.13;10.60;;;;;;;12.12;100.00;100739.00;5004054;28;20068;-76
2023/03/19 02:53:27;;;;;;;23.42;11.27;;;;;;;12.13;100.00;100740.63;5004344;28;20076;-75
2023/03/19 02:55:54;;;;;;;19.75;11.13;;;;;;;12.10;100.00;100741.41;5003112;28;20445;-73
2023/03/19 02:58:21;;;;;;;21.02;10.45;;;;;;;12.10;100.00;100735.88;5004372;28;20058;-72
2023/03/19 03:00:47;;;;;;;19.67;10.65;;;;;;;12.12;100.00;100736.25;5003984;28;20054;-73
2023/03/19 03:03:14;;;;;;;19.83;10.63;;;;;;;12.10;100.00;100732.31;5003351;28;20116;-74
2023/03/19 03:05:40;;;;;;;23.48;11.45;;;;;;;12.03;100.00;100730.38;5004434;28;20041;-73
2023/03/19 03:08:08;;;;;;;22.42;12.07;;;;;;;12.04;100.00;100739.47;5004037;28;20064;-77
2023/03/19 03:10:34;;;;;;;19.95;11.30;;;;;;;12.07;100.00;100735.88;5008795;28;20060;-69
2023/03/19 03:13:01;;;;;;;19.58;11.35;;;;;;;12.07;100.00;100738.66;5010477;28;20061;-73
2023/03/19 03:15:28;;;;;;;20.15;12.00;;;;;;;12.07;100.00;100738.66;5009061;28;20060;-73
2023/03/19 03:17:55;;;;;;;25.63;11.70;;;;;;;12.07;100.00;100730.34;5011613;28;20137;-73
2023/03/19 03:20:23;;;;;;;20.75;11.82;;;;;;;12.08;100.00;100741.03;5013578;28;20137;-74
2023/03/19 03:22:53;;;;;;;23.77;12.07;;;;;;;12.12;100.00;100741.78;5008442;28;20062;-73
2023/03/19 03:25:20;;;;;;;20.77;12.35;;;;;;;12.09;100.00;100737.06;4993617;28;20128;-75
2023/03/19 03:27:46;;;;;;;26.27;13.25;;;;;;;12.13;100.00;100745.34;5009201;28;20051;-73
2023/03/19 03:30:15;;;;;;;22.05;11.63;;;;;;;12.14;100.00;100741.38;5008517;28;20058;-73
2023/03/19 03:32:42;;;;;;;23.95;12.43;;;;;;;12.10;100.00;100733.09;5011394;28;20057;-72
2023/03/19 03:35:09;;;;;;;24.05;12.43;;;;;;;12.13;100.00;100740.63;5009848;28;20484;-73
2023/03/19 03:37:43;;;;;;;22.60;13.52;;;;;;;12.18;100.00;100747.69;5007268;28;20053;-73
2023/03/19 03:40:10;;;;;;;23.52;12.63;;;;;;;12.16;100.00;100745.34;5009745;28;20050;-74
2023/03/19 03:42:36;;;;;;;25.40;12.68;;;;;;;12.13;100.00;100743.38;5006668;28;20060;-74
2023/03/19 03:45:03;;;;;;;22.15;12.10;;;;;;;12.13;100.00;100742.59;5006129;28;20052;-74
2023/03/19 03:47:30;;;;;;;23.35;12.80;;;;;;;12.16;100.00;100750.09;5012830;28;20431;-75
2023/03/19 03:49:56;;;;;;;24.30;13.23;;;;;;;12.08;100.00;100752.13;5010095;28;20054;-76
2023/03/19 03:52:23;;;;;;;21.98;12.38;;;;;;;12.13;100.00;100750.91;5009347;28;20049;-73
2023/03/19 03:54:51;;;;;;;19.92;12.35;;;;;;;12.19;100.00;100746.50;5008951;28;20049;-76
2023/03/19 03:57:18;;;;;;;24.00;12.75;;;;;;;12.18;100.00;100754.03;5009762;28;20053;-75
2023/03/19 03:59:45;;;;;;;21.83;12.77;;;;;;;12.22;100.00;100748.47;5009833;28;20061;-75
2023/03/19 04:02:11;;;;;;;22.10;12.40;;;;;;;12.25;100.00;100747.66;5008901;28;20052;-74
2023/03/19 04:04:38;;;;;;;22.85;12.48;;;;;;;12.25;100.00;100748.44;5015824;28;20133;-73
2023/03/19 04:07:05;;;;;;;25.05;13.32;;;;;;;12.25;100.00;100753.22;5009571;28;20053;-74
2023/03/19 04:09:32;;;;;;;22.23;12.65;;;;;;;12.26;100.00;100754.78;5007612;28;20050;-77
2023/03/19 04:11:59;;;;;;;21.02;12.45;;;;;;;12.02;100.00;100767.59;5008999;28;20507;-72
2023/03/19 04:14:34;;;;;;;19.10;11.25;;;;;;;11.95;100.00;100764.88;5009084;28;20163;-75
2023/03/19 04:17:00;;;;;;;;;;;;;;;12.06;100.00;100759.28;5009576;28;20117;-71
2023/03/19 04:19:27;;;;;;;20.70;11.50;;;;;;;12.09;100.00;100772.34;5008916;28;19967;-76
2023/03/19 04:21:56;;;;;;;26.92;11.88;;;;;;;12.08;100.00;100766.00;5008380;28;20439;-74
2023/03/19 04:24:23;;;;;;;21.85;11.40;;;;;;;12.05;100.00;100768.81;5009453;28;20049;-73
2023/03/19 04:26:49;;;;;;;23.63;13.38;;;;;;;12.07;100.00;100769.16;5009227;28;20042;-74
2023/03/19 04:29:17;;;;;;;22.60;12.20;;;;;;;12.07;100.00;100764.41;5009639;28;20049;-71
2023/03/19 04:31:44;;;;;;;21.35;12.75;;;;;;;12.10;100.00;100766.38;5008966;28;20448;-72
2023/03/19 04:34:11;;;;;;;26.88;13.02;;;;;;;12.16;100.00;100772.28;5017433;28;20054;-73
2023/03/19 04:36:38;;;;;;;26.98;12.55;;;;;;;12.04;100.00;100775.53;5007753;28;20053;-73
2023/03/19 04:39:04;;;;;;;21.83;11.45;;;;;;;12.15;100.00;100779.03;5009186;28;20049;-72
2023/03/19 04:41:37;;;;;;;21.60;11.85;;;;;;;12.17;100.00;100780.19;5008406;28;20072;-73
2023/03/19 04:44:04;;;;;;;25.85;12.35;;;;;;;12.21;100.00;100797.59;5008862;28;20503;-73
2023/03/19 04:46:30;;;;;;;23.02;12.13;;;;;;;12.20;100.00;100798.81;5009071;28;20052;-73
2023/03/19 04:48:58;;;;;;;22.88;11.02;;;;;;;12.24;100.00;100791.25;5008512;28;20100;-74
2023/03/19 04:51:25;;;;;;;21.65;12.32;;;;;;;12.23;100.00;100794.44;5007421;28;20107;-76
2023/03/19 04:53:51;;;;;;;20.35;12.35;;;;;;;12.20;100.00;100798.00;5008467;28;20050;-74
2023/03/19 04:56:18;;;;;;;21.75;11.80;;;;;;;12.22;100.00;100803.94;5014771;28;20041;-75
2023/03/19 04:58:44;;;;;;;24.20;12.32;;;;;;;12.26;100.00;100807.50;5008908;28;20510;-73
2023/03/19 05:01:12;;;;;;;20.42;11.55;;;;;;;12.34;100.00;100807.03;5007822;28;20153;-73
2023/03/19 05:03:38;;;;;;;19.50;11.05;;;;;;;12.41;100.00;100806.97;5008629;28;20541;-74
2023/03/19 05:06:10;;;;;;;21.02;11.45;;;;;;;12.47;100.00;100802.59;5008526;28;20050;-74
2023/03/19 05:08:37;;;;;;;24.55;10.82;;;;;;;12.49;100.00;100808.50;5001080;28;20496;-75
2023/03/19 05:11:04;;;;;;;17.83;9.40;;;;;;;12.53;100.00;100805.72;5008248;28;20060;-73
2023/03/19 05:13:30;;;;;;;21.13;11.07;;;;;;;12.54;100.00;100804.50;5007057;28;21398;-73
2023/03/19 05:15:57;;;;;;;21.15;10.20;;;;;;;12.49;100.00;100802.19;5008355;28;20614;-74
2023/03/19 05:18:23;;;;;;;22.58;10.63;;;;;;;12.49;100.00;100797.41;5008821;28;20534;-73
2023/03/19 05:20:50;;;;;;;21.70;10.55;;;;;;;12.52;100.00;100793.03;5008058;28;20050;-74
2023/03/19 05:23:16;;;;;;;19.08;8.80;;;;;;;12.51;100.00;100808.09;5019183;28;20054;-74
2023/03/19 05:25:46;;;;;;;18.08;8.88;;;;;;;12.58;100.00;100799.72;5007912;28;20074;-74
2023/03/19 05:28:16;;;;;;;15.38;7.28;;;;;;;12.80;100.00;100813.00;5002597;28;20057;-74
2023/03/19 05:30:43;;;;;;;19.83;7.93;;;;;;;12.39;100.00;100812.13;5008100;28;20050;-73
2023/03/19 05:33:09;;;;;;;16.70;7.70;;;;;;;12.40;100.00;100804.63;5007524;28;20411;-75
2023/03/19 05:35:36;;;;;;;18.70;10.27;;;;;;;12.43;100.00;100814.91;5010177;28;20133;-76
2023/03/19 05:38:03;;;;;;;19.00;9.48;;;;;;;12.43;100.00;100810.13;5008543;28;20136;-75
2023/03/19 05:40:30;;;;;;;17.33;8.38;;;;;;;12.45;100.00;100823.59;5007966;28;20052;-77
2023/03/19 05:42:57;;;;;;;14.10;6.88;;;;;;;12.32;100.00;100826.06;5006297;28;20049;-74
2023/03/19 05:45:24;;;;;;;15.18;7.07;;;;;;;12.30;100.00;100824.91;5008000;28;20518;-75
2023/03/19 05:47:50;;;;;;;17.05;6.25;;;;;;;12.31;100.00;100832.81;5016471;28;20100;-76
2023/03/19 05:50:18;;;;;;;14.80;5.22;;;;;;;12.31;100.00;100830.03;5008928;28;20129;-73
2023/03/19 05:52:44;;;;;;;5.65;2.13;;;;;;;12.32;100.00;100834.38;5007702;28;20776;-72
2023/03/19 05:55:11;;;;;;;12.05;4.82;;;;;;;12.35;100.00;100841.91;5007709;28;20053;-75
2023/03/19 05:57:38;;;;;;;11.00;4.40;;;;;;;12.38;100.00;100837.50;5007401;28;20050;-75
2023/03/19 06:00:06;;;;;;;11.88;5.25;;;;;;;12.49;100.00;100836.25;5007029;28;20538;-75
2023/03/19 06:02:34;;;;;;;18.30;6.00;;;;;;;12.39;100.00;100845.44;5007262;28;20428;-74
2023/03/19 06:05:01;;;;;;;15.45;5.88;;;;;;;12.58;100.00;100833.81;5006238;28;20060;-75
2023/03/19 06:07:27;;;;;;;14.77;6.22;;;;;;;12.65;100.00;100839.31;5007374;28;20410;-73
2023/03/19 06:09:54;;;;;;;15.07;5.70;;;;;;;12.50;100.00;100846.19;5006304;28;20061;-72
2023/03/19 06:12:20;;;;;;;11.43;4.35;;;;;;;12.77;100.00;100843.59;5006721;28;20072;-75
2023/03/19 06:14:47;;;;;;;19.45;5.85;;;;;;;12.62;100.00;100847.66;5006018;28;20056;-70
2023/03/19 06:17:14;;;;;;;15.73;6.07;;;;;;;12.83;100.00;100850.28;5007302;28;20389;-76
2023/03/19 06:19:40;;;;;;;17.38;6.00;;;;;;;12.77;100.00;100852.72;5007120;28;20046;-73
2023/03/19 06:22:07;;;;;;;14.13;5.68;;;;;;;12.76;100.00;100855.91;5007446;28;20065;-76
2023/03/19 06:24:39;;;;;;;5.22;2.17;;;;;;;12.71;100.00;100864.66;5006313;28;20050;-76
2023/03/19 06:27:06;;;;;;;14.82;6.30;;;;;;;12.74;100.00;100866.63;5006195;28;20046;-75
2023/03/19 06:29:33;;;;;;;14.63;6.25;;;;;;;12.56;100.00;100871.50;5011335;28;20380;-77
2023/03/19 06:31:59;;;;;;;16.08;5.15;;;;;;;12.47;100.00;100865.63;5011762;28;20079;-72
2023/03/19 06:34:26;;;;;;;13.35;5.50;;;;;;;12.46;100.00;100867.59;5006838;28;20143;-72
2023/03/19 06:37:19;;;;;;;11.65;5.75;;;;;;;12.79;100.00;100872.50;5007155;28;20073;-73
2023/03/19 06:39:45;;;;;;;17.35;5.97;;;;;;;12.81;100.00;100874.88;5006288;28;20062;-73
2023/03/19 06:42:12;;;;;;;15.52;6.28;;;;;;;12.83;100.00;100873.28;5001156;28;20137;-76
2023/03/19 06:44:38;;;;;;;11.13;4.40;;;;;;;12.77;100.00;100879.69;5006840;28;20546;-73
2023/03/19 06:47:07;;;;;;;6.90;3.00;;;;;;;12.69;100.00;100884.50;5011290;28;20053;-74
2023/03/19 06:49:34;;;;;;;5.70;2.50;;;;;;;12.71;100.00;100886.84;5010530;28;20054;-74
2023/03/19 06:52:00;;;;;;;16.55;6.10;;;;;;;12.76;100.00;100883.66;5010130;28;20060;-73
2023/03/19 06:54:27;;;;;;;17.95;7.30;;;;;;;12.82;100.00;100893.13;5011238;28;20145;-73
2023/03/19 06:56:53;;;;;;;17.23;5.97;;;;;;;12.81;100.00;100891.56;5010392;28;20452;-74
2023/03/19 06:59:20;;;;;;;11.02;4.00;;;;;;;12.79;100.00;100897.50;5008953;28;20050;-76
2023/03/19 07:01:46;;;;;;;17.83;7.25;;;;;;;12.92;100.00;100904.16;5008806;28;20045;-72
2023/03/19 07:04:13;;;;;;;19.40;6.72;;;;;;;12.85;100.00;100904.22;5009712;28;20062;-72
2023/03/19 07:06:39;;;;;;;18.17;6.88;;;;;;;12.94;100.00;100900.97;5011175;28;20472;-72
2023/03/19 07:09:06;;;;;;;13.45;5.78;;;;;;;12.90;100.00;100903.75;5016172;28;20064;-74
2023/03/19 07:11:33;;;;;;;17.85;6.93;;;;;;;12.88;100.00;100908.16;5010925;28;20050;-73
2023/03/19 07:14:01;;;;;;;16.77;6.63;;;;;;;12.90;100.00;100914.09;5009544;28;20072;-73
2023/03/19 07:16:28;;;;;;;14.93;6.90;;;;;;;12.94;100.00;100917.63;5011203;28;20058;-73
2023/03/19 07:18:55;;;;;;;16.42;7.45;;;;;;;12.99;100.00;100914.44;5011063;28;20062;-74
2023/03/19 07:21:22;;;;;;;25.10;9.68;;;;;;;13.00;100.00;100910.50;5010656;28;20096;-75
2023/03/19 07:23:51;;;;;;;21.25;9.63;;;;;;;12.96;100.00;100910.47;5010463;28;20050;-73
2023/03/19 07:26:18;;;;;;;32.60;12.75;;;;;;;13.07;100.00;100910.44;5010207;28;20057;-72
2023/03/19 07:28:44;;;;;;;24.85;12.00;;;;;;;13.11;100.00;100902.06;5009588;28;20450;-74
2023/03/19 07:31:11;;;;;;;24.92;10.23;;;;;;;13.07;100.00;100909.63;5010786;28;20077;-71
2023/03/19 07:33:38;;;;;;;25.23;12.25;;;;;;;13.09;100.00;100910.03;5011117;28;20041;-73
2023/03/19 07:36:06;;;;;;;25.67;11.65;;;;;;;13.13;100.00;100911.53;5010375;28;20061;-73
2023/03/19 07:38:32;;;;;;;24.33;12.13;;;;;;;13.18;100.00;100922.25;5009601;28;20049;-73
2023/03/19 07:40:59;;;;;;;25.98;13.10;;;;;;;13.17;100.00;100909.56;5007281;28;20107;-74
2023/03/19 07:43:29;;;;;;;21.42;10.90;;;;;;;13.29;100.00;100922.16;5009278;28;20049;-73
2023/03/19 07:45:55;;;;;;;24.52;11.55;;;;;;;13.31;100.00;100920.53;5010466;28;20057;-75
2023/03/19 07:48:22;;;;;;;19.65;9.45;;;;;;;13.33;100.00;100929.22;5003195;28;20050;-74
2023/03/19 07:50:50;;;;;;;22.75;10.60;;;;;;;13.26;100.00;100912.63;5017026;28;20061;-76
2023/03/19 07:53:17;;;;;;;20.42;8.82;;;;;;;13.44;100.00;100923.59;5028504;28;20109;-73
2023/03/19 07:55:43;;;;;;;16.60;7.97;;;;;;;13.50;100.00;100921.94;5009169;28;20129;-71
2023/03/19 07:58:10;;;;;;;14.88;7.55;;;;;;;13.48;100.00;100933.47;5011353;28;20100;-73
2023/03/19 08:00:37;;;;;;;14.98;6.32;;;;;;;13.41;100.00;100936.34;5011108;28;20056;-71
2023/03/19 08:03:03;;;;;;;15.00;6.43;;;;;;;13.49;100.00;100937.84;5009888;28;20049;-72
2023/03/19 08:05:30;;;;;;;21.45;7.32;;;;;;;13.56;100.00;100937.75;5010033;28;20810;-72
2023/03/19 08:07:56;;;;;;;15.65;7.13;;;;;;;13.54;100.00;100936.59;5009951;28;20053;-71
2023/03/19 08:10:23;;;;;;;15.70;6.97;;;;;;;13.82;100.00;100937.09;5008758;28;20050;-70
2023/03/19 08:12:49;;;;;;;16.58;6.82;;;;;;;13.83;100.00;100938.66;5009826;28;20046;-70
2023/03/19 08:15:16;;;;;;;16.25;6.07;;;;;;;13.87;100.00;100942.19;5009742;28;20050;-72
2023/03/19 08:17:51;;;;;;;16.48;6.20;;;;;;;14.01;100.00;100944.81;5008155;28;20057;-72
2023/03/19 08:20:21;;;;;;;19.55;7.47;;;;;;;13.56;100.00;100954.44;5007923;28;20060;-72
2023/03/19 08:22:49;;;;;;;21.25;7.03;;;;;;;13.56;100.00;100945.34;5012304;28;20053;-74
2023/03/19 08:25:16;;;;;;;17.98;7.55;;;;;;;13.62;100.00;100952.00;5021774;28;20080;-75
2023/03/19 08:27:43;;;;;;;14.52;7.13;;;;;;;13.99;100.00;100960.34;5028883;28;20042;-79
2023/03/19 08:30:10;;;;;;;16.10;7.88;;;;;;;13.65;100.00;100957.53;5018127;28;20049;-72
2023/03/19 08:32:37;;;;;;;19.48;8.18;;;;;;;13.62;100.00;100958.38;5013602;28;20046;-78
2023/03/19 08:35:04;;;;;;;15.38;7.00;;;;;;;13.57;100.00;100963.59;5015310;28;20496;-72
2023/03/19 08:37:31;;;;;;;22.58;9.02;;;;;;;13.98;100.00;100965.16;5009325;28;20081;-70
2023/03/19 08:39:58;;;;;;;20.75;11.93;;;;;;;13.71;100.00;100971.78;5007501;28;20050;-72
2023/03/19 08:42:24;;;;;;;21.95;12.38;;;;;;;13.63;100.00;100965.50;5008914;28;20526;-70
2023/03/19 08:44:51;;;;;;;26.98;14.02;;;;;;;13.62;100.00;100968.69;5013183;28;20069;-73
2023/03/19 08:47:17;;;;;;;27.45;15.73;;;;;;;13.67;100.00;100971.03;5008223;28;20046;-72
2023/03/19 08:49:44;;;;;;;20.40;8.90;;;;;;;13.56;100.00;100976.69;5004106;28;20054;-69
2023/03/19 08:52:10;;;;;;;14.60;6.40;;;;;;;13.59;100.00;100975.88;5009577;28;20054;-70
2023/03/19 08:54:37;;;;;;;16.20;6.20;;;;;;;13.58;100.00;100979.84;5018044;28;20053;-75
2023/03/19 08:57:03;;;;;;;15.60;7.07;;;;;;;13.61;100.00;100979.03;5008605;28;20508;-71
2023/03/19 08:59:30;;;;;;;13.52;6.05;;;;;;;13.62;100.00;100985.38;5014596;28;20046;-72
2023/03/19 09:02:00;;;;;;;14.85;7.70;;;;;;;13.70;100.00;100976.53;5025311;28;20116;-72
2023/03/19 09:04:27;;;;;;;14.20;7.22;;;;;;;13.77;100.00;100979.25;5027100;28;20050;-71
2023/03/19 09:06:53;;;;;;;15.45;7.72;;;;;;;13.83;100.00;100982.38;5027172;28;20050;-73
2023/03/19 09:09:22;;;;;;;12.75;6.18;;;;;;;13.87;100.00;100991.50;5010568;28;20078;-71
2023/03/19 09:11:49;;;;;;;1.80;1.52;;;;;;;13.87;100.00;100992.25;5008412;28;20045;-69
2023/03/19 09:14:18;;;;;;;20.83;7.55;;;;;;;14.01;100.00;100985.78;5008014;28;20050;-71
2023/03/19 09:16:45;;;;;;;14.18;6.93;;;;;;;14.20;100.00;100987.94;5007999;28;20104;-70
2023/03/19 09:19:12;;;;;;;16.85;6.93;;;;;;;14.24;100.00;100989.50;5007657;28;20057;-73
2023/03/19 09:21:38;;;;;;;18.85;8.13;;;;;;;14.31;100.00;100983.84;5003944;28;20052;-71
2023/03/19 09:24:05;;;;;;;16.30;7.28;;;;;;;14.48;100.00;100982.84;5008667;28;20061;-70
2023/03/19 09:26:32;;;;;;;17.20;7.53;;;;;;;14.52;100.00;100991.16;5006681;28;20136;-73
2023/03/19 09:28:58;;;;;;;13.88;5.85;;;;;;;14.51;100.00;100990.38;5006758;28;20471;-70
2023/03/19 09:31:25;;;;;;;13.95;7.05;;;;;;;14.63;100.00;100986.25;5006303;28;20054;-70
2023/03/19 09:33:54;;;;;;;14.35;7.30;;;;;;;14.74;100.00;100979.31;5006118;28;20508;-73
2023/03/19 09:36:21;;;;;;;15.40;5.55;;;;;;;14.74;100.00;100993.25;5005560;28;20610;-69
2023/03/19 09:38:47;;;;;;;12.05;5.53;;;;;;;14.77;100.00;100995.19;5002313;28;20050;-69
2023/03/19 09:41:14;;;;;;;15.60;6.43;;;;;;;14.91;100.00;100992.22;5001787;28;20069;-72
2023/03/19 09:44:03;;;;;;;13.57;6.32;;;;;;;14.97;100.00;101001.69;5001942;28;20053;-70
2023/03/19 09:46:50;;;;;;;15.18;7.30;;;;;;;15.13;100.00;101001.03;4999733;28;20052;-73
2023/03/19 09:49:32;;;;;;;16.35;7.53;;;;;;;15.15;100.00;100998.59;5000740;28;20479;-73
2023/03/19 09:52:37;;;;;;;16.77;7.43;;;;;;;15.35;100.00;101008.66;5001235;28;20061;-72
2023/03/19 09:55:27;;;;;;;3.20;1.88;;;;;;;15.18;100.00;101003.34;4998909;28;20088;-69
2023/03/19 09:57:56;;;;;;;7.35;2.97;;;;;;;16.03;100.00;100999.94;4995058;28;20658;-70
2023/03/19 10:00:27;;;;;;;9.15;3.60;;;;;;;16.72;100.00;101013.72;5005585;28;20054;-70
2023/03/19 10:03:24;;;;;;;14.65;5.70;;;;;;;16.13;100.00;101012.91;5001853;28;20413;-71
2023/03/19 10:06:05;;;;;;;11.13;5.70;;;;;;;18.13;100.00;101020.28;5003454;28;20052;-71
2023/03/19 10:08:58;;;;;;;6.15;2.45;;;;;;;18.48;100.00;101021.31;5007210;28;20744;-71
2023/03/19 10:11:53;;;;;;;9.77;3.88;;;;;;;17.83;100.00;101020.69;5004475;28;20046;-72
2023/03/19 10:14:26;;;;;;;8.82;3.30;;;;;;;18.27;100.00;101039.50;5004148;28;20054;-69
2023/03/19 10:16:57;;;;;;;11.23;5.45;;;;;;;18.51;100.00;101021.22;5006583;28;20046;-75
2023/03/19 10:19:38;;;;;;;4.63;2.08;;;;;;;18.96;100.00;101024.66;5003375;28;20069;-71
2023/03/19 10:22:15;;;;;;;12.30;4.60;;;;;;;18.82;100.00;101027.91;5008977;28;20046;-72
2023/03/19 10:24:45;;;;;;;13.35;6.30;;;;;;;18.85;100.00;101021.41;5005502;28;20665;-71
2023/03/19 10:27:15;;;;;;;3.78;2.05;;;;;;;18.69;100.00;101026.31;5006425;28;20054;-71
2023/03/19 10:29:42;;;;;;;14.55;6.10;;;;;;;18.92;100.00;101028.81;5003499;28;20693;-71
2023/03/19 10:32:18;;;;;;;3.13;1.48;;;;;;;18.88;100.00;101019.72;5001020;28;20058;-71
2023/03/19 10:34:49;;;;;;;7.38;3.97;;;;;;;18.53;100.00;101027.16;4998545;28;20057;-75
2023/03/19 10:37:19;;;;;;;12.05;5.65;;;;;;;19.44;100.00;101029.22;5002823;28;20056;-68
2023/03/19 10:39:48;;;;;;;13.30;5.80;;;;;;;17.99;100.00;101023.47;4999493;28;20428;-70
2023/03/19 10:42:31;;;;;;;13.75;6.32;;;;;;;19.37;100.00;101024.59;5005097;28;20060;-73
2023/03/19 10:45:20;;;;;;;12.30;5.53;;;;;;;19.54;100.00;101030.88;5004493;28;20108;-73
2023/03/19 10:47:47;;;;;;;10.25;4.45;;;;;;;18.95;100.00;101037.13;5004425;28;20065;-73
2023/03/19 10:50:22;;;;;;;6.60;3.45;;;;;;;19.42;100.00;101035.28;4997811;28;20049;-75
2023/03/19 10:53:03;;;;;;;9.93;4.32;;;;;;;19.24;100.00;101040.63;5004670;28;20045;-73
2023/03/19 10:55:30;;;;;;;13.65;5.30;;;;;;;18.99;100.00;101042.63;5002931;28;20050;-71
2023/03/19 10:58:02;;;;;;;11.68;5.75;;;;;;;19.23;100.00;101039.06;5004836;28;20361;-73
2023/03/19 11:00:32;;;;;;;10.90;5.72;;;;;;;19.03;100.00;101030.06;5004146;28;20061;-72
2023/03/19 11:03:00;;;;;;;3.10;1.02;;;;;;;19.67;100.00;101034.44;5006495;28;20480;-72
2023/03/19 11:05:29;;;;;;;11.60;5.80;;;;;;;19.92;100.00;101037.22;5006016;28;20050;-73
2023/03/19 11:08:07;;;;;;;10.07;5.47;;;;;;;19.72;100.00;101039.50;5001875;28;20123;-75
2023/03/19 11:10:35;;;;;;;10.48;4.80;;;;;;;19.72;100.00;101037.50;4993464;28;20046;-75
2023/03/19 11:13:14;;;;;;;13.25;6.82;;;;;;;19.79;100.00;101036.44;4995809;28;20049;-70